עמוד ראשי
תמונות לווין תחזית 10-יוםאקליםתחזית ים סופות טרופיות ברקים שדות תעופהשאלות נפוצות עלון אודות
מזג אוויר : אירופה אפריקה אמריקה הצפונית אמריקה הדרומית אסיה אוסטרליה-אוקיאניה אחרים
שפות איש קשר

זלצבורג, אוסטריה

קו רוחב: 47-48N, קו אורך: 013-00E, גובה: 430מטר


METAR: LOWS 301920Z 17004KT CAVOK 25/18 Q1018 NOSIG
TAF: LOWS 301715Z 3018/3118 04005KT CAVOK TX32/3112Z TN18/3103Z BECMG 3018/3020 15008KT BECMG 3108/3110 35006KT

זמן: 21:53 (19:53 UTC)

תצפית מזג אוויר נוכחית

הדו"ח נערך לפני 33דקות, בשעה 19:20 UTC
רוח 4קשר מכיוון דרום
טמפרטורת 25 צלסיוס
לחות 65%
לחץ 1018 hPa
ראות 10 קילומטר או יותר
ללא עננים שבסיסם נמוך מ 1500 רגל או קומולונימבוס

שנה יחידות

תחזית

הדו"ח נערך לפני 2 שעות ו 38דקות, בשעה 17:15 UTC
תחזית בתוקף מ 30 ב 18 UTC עד 31 ב 18 UTC
רוח 5קשר מכיוון צפון-מזרח
ראות 10 קילומטר או יותר
ללא עננים שבסיסם נמוך מ 1500 רגל או קומולונימבוס
יעשה מ
30 ב 18 UTC עד 30 ב 20 UTC
רוח 8קשר מכיוון דרום/דרום-מזרח
יעשה מ
31 ב 08 UTC עד 31 ב 10 UTC
רוח 6קשר מכיוון צפון
המידע באתר זה מותנה של תניית פטור
מזג אוויר : אירופה אפריקה אמריקה הצפונית אמריקה הדרומית אסיה אוסטרליה-אוקיאניה אחרים
תמונות לווין תחזית 10-יוםאקליםתחזית ים סופות טרופיות ברקים שדות תעופהשאלות נפוצות שפות איש קשר עלון אודות